createdAt,value
2023-03-22T00:01:58.768Z,20.40
2023-03-22T00:04:26.348Z,20.40
2023-03-22T00:06:52.863Z,20.40
2023-03-22T00:09:19.364Z,20.40
2023-03-22T00:11:46.200Z,20.40
2023-03-22T00:14:12.774Z,20.40
2023-03-22T00:16:39.344Z,20.40
2023-03-22T00:19:05.853Z,20.40
2023-03-22T00:21:32.370Z,20.40
2023-03-22T00:23:59.039Z,20.40
2023-03-22T00:26:25.591Z,20.40
2023-03-22T00:28:52.100Z,20.40
2023-03-22T00:31:19.960Z,20.40
2023-03-22T00:33:46.549Z,20.40
2023-03-22T00:36:13.350Z,20.40
2023-03-22T00:38:44.293Z,20.40
2023-03-22T00:41:12.979Z,20.40
2023-03-22T00:43:39.783Z,20.40
2023-03-22T00:46:06.562Z,20.40
2023-03-22T00:48:33.366Z,20.40
2023-03-22T00:50:59.887Z,20.40
2023-03-22T00:53:26.455Z,20.40
2023-03-22T00:55:53.095Z,20.40
2023-03-22T00:58:19.598Z,20.40
2023-03-22T01:00:46.203Z,20.40
2023-03-22T01:03:14.215Z,20.40
2023-03-22T01:05:40.804Z,20.40
2023-03-22T01:08:10.327Z,20.40
2023-03-22T01:10:41.261Z,20.40
2023-03-22T01:13:08.224Z,20.40
2023-03-22T01:15:35.238Z,20.40
2023-03-22T01:18:01.788Z,20.40
2023-03-22T01:20:30.647Z,20.40
2023-03-22T01:22:57.235Z,20.40
2023-03-22T01:25:24.121Z,20.50
2023-03-22T01:27:50.833Z,20.50
2023-03-22T01:30:17.530Z,20.50
2023-03-22T01:32:44.131Z,20.40
2023-03-22T01:35:10.789Z,20.50
2023-03-22T01:37:37.428Z,20.40
2023-03-22T01:40:04.624Z,20.40
2023-03-22T01:42:31.201Z,20.40
2023-03-22T01:45:13.052Z,20.50
2023-03-22T01:47:47.752Z,20.50
2023-03-22T01:50:14.591Z,20.40
2023-03-22T01:52:41.284Z,20.40
2023-03-22T01:55:09.285Z,20.50
2023-03-22T01:57:39.255Z,20.40
2023-03-22T02:00:13.188Z,20.50
2023-03-22T02:02:39.742Z,20.50
2023-03-22T02:05:06.407Z,20.50
2023-03-22T02:07:33.182Z,20.50
2023-03-22T02:09:59.847Z,20.50
2023-03-22T02:12:32.338Z,20.50
2023-03-22T02:15:07.969Z,20.50
2023-03-22T02:17:53.379Z,20.50
2023-03-22T02:20:39.908Z,20.50
2023-03-22T02:23:06.572Z,20.50
2023-03-22T02:25:33.158Z,20.50
2023-03-22T02:28:13.909Z,20.50
2023-03-22T02:31:00.109Z,20.50
2023-03-22T02:33:41.530Z,20.50
2023-03-22T02:36:22.292Z,20.50
2023-03-22T02:39:04.287Z,20.50
2023-03-22T02:41:39.670Z,20.50
2023-03-22T02:44:15.330Z,20.50
2023-03-22T02:46:56.382Z,20.50
2023-03-22T02:49:49.370Z,20.50
2023-03-22T02:52:23.910Z,20.50
2023-03-22T02:54:54.199Z,20.60
2023-03-22T02:57:28.932Z,20.50
2023-03-22T02:59:56.654Z,20.50
2023-03-22T03:02:24.685Z,20.50
2023-03-22T03:04:52.740Z,20.50
2023-03-22T03:07:22.601Z,20.50
2023-03-22T03:09:50.193Z,20.50
2023-03-22T03:12:21.354Z,20.50
2023-03-22T03:14:48.093Z,20.50
2023-03-22T03:17:23.507Z,20.60
2023-03-22T03:19:57.392Z,20.60
2023-03-22T03:22:42.524Z,20.60
2023-03-22T03:25:43.185Z,20.60
2023-03-22T03:28:15.457Z,20.60
2023-03-22T03:30:48.447Z,20.60
2023-03-22T03:33:17.570Z,20.60
2023-03-22T03:35:48.412Z,20.60
2023-03-22T03:38:18.483Z,20.60
2023-03-22T03:40:47.161Z,20.60
2023-03-22T03:43:14.122Z,20.60
2023-03-22T03:45:40.783Z,20.60
2023-03-22T03:48:17.329Z,20.60
2023-03-22T03:50:43.913Z,20.60
2023-03-22T03:53:10.626Z,20.60
2023-03-22T03:55:37.674Z,20.60
2023-03-22T03:58:04.186Z,20.60
2023-03-22T04:00:31.034Z,20.60
2023-03-22T04:02:57.529Z,20.60
2023-03-22T04:05:24.043Z,20.60
2023-03-22T04:07:50.631Z,20.60
2023-03-22T04:10:17.161Z,20.60
2023-03-22T04:12:43.851Z,20.60
2023-03-22T04:15:12.081Z,20.70
2023-03-22T04:17:39.498Z,20.70
2023-03-22T04:20:07.020Z,20.70
2023-03-22T04:22:38.542Z,20.60
2023-03-22T04:25:06.060Z,20.70
2023-03-22T04:27:32.630Z,20.70
2023-03-22T04:30:00.888Z,20.70
2023-03-22T04:32:27.494Z,20.70
2023-03-22T04:34:54.047Z,20.70
2023-03-22T04:37:22.524Z,20.70
2023-03-22T04:39:49.052Z,20.70
2023-03-22T04:42:15.691Z,20.70
2023-03-22T04:44:42.256Z,20.70
2023-03-22T04:47:08.829Z,20.70
2023-03-22T04:49:35.549Z,20.70
2023-03-22T04:52:02.061Z,20.70
2023-03-22T04:54:28.612Z,20.70
2023-03-22T04:56:55.448Z,20.80
2023-03-22T04:59:22.049Z,20.70
2023-03-22T05:01:49.352Z,20.70
2023-03-22T05:04:16.694Z,20.70
2023-03-22T05:06:43.303Z,20.70
2023-03-22T05:09:10.078Z,20.70
2023-03-22T05:11:36.583Z,20.80
2023-03-22T05:14:03.421Z,20.80
2023-03-22T05:16:30.161Z,20.70
2023-03-22T05:18:56.829Z,20.80
2023-03-22T05:21:28.256Z,20.70
2023-03-22T05:23:55.654Z,20.70
2023-03-22T05:26:24.421Z,20.80
2023-03-22T05:28:51.400Z,20.80
2023-03-22T05:31:18.089Z,20.80
2023-03-22T05:33:46.548Z,20.80
2023-03-22T05:36:13.088Z,20.80
2023-03-22T05:38:39.669Z,20.80
2023-03-22T05:41:06.281Z,20.80
2023-03-22T05:43:32.777Z,20.80
2023-03-22T05:45:59.344Z,20.80
2023-03-22T05:48:25.956Z,20.80
2023-03-22T05:50:52.469Z,20.80
2023-03-22T05:53:18.977Z,20.80
2023-03-22T05:55:46.028Z,20.80
2023-03-22T05:58:12.884Z,20.80
2023-03-22T06:00:40.114Z,20.90
2023-03-22T06:03:07.065Z,19.90
2023-03-22T06:05:36.357Z,18.70
2023-03-22T06:08:03.127Z,18.20
2023-03-22T06:10:30.374Z,17.80
2023-03-22T06:12:56.943Z,18.00
2023-03-22T06:15:23.487Z,18.60
2023-03-22T06:17:50.014Z,19.20
2023-03-22T06:20:16.682Z,19.60
2023-03-22T06:22:43.380Z,19.90
2023-03-22T06:25:10.885Z,20.00
2023-03-22T06:27:37.807Z,20.10
2023-03-22T06:30:04.514Z,20.20
2023-03-22T06:32:31.031Z,20.30
2023-03-22T06:34:57.643Z,20.40
2023-03-22T06:37:25.008Z,20.40
2023-03-22T06:39:52.145Z,20.40
2023-03-22T06:42:18.689Z,20.50
2023-03-22T06:44:45.303Z,20.50
2023-03-22T06:47:12.178Z,20.50
2023-03-22T06:49:39.073Z,20.60
2023-03-22T06:52:06.072Z,20.60
2023-03-22T06:54:32.733Z,20.60
2023-03-22T06:56:59.311Z,20.60
2023-03-22T06:59:26.088Z,20.60
2023-03-22T07:01:52.686Z,20.70
2023-03-22T07:04:19.955Z,20.60
2023-03-22T07:06:46.752Z,20.70
2023-03-22T07:09:13.329Z,20.70
2023-03-22T07:11:39.906Z,20.70
2023-03-22T07:14:08.625Z,20.70
2023-03-22T07:16:35.241Z,20.70
2023-03-22T07:19:01.856Z,20.70
2023-03-22T07:21:28.407Z,20.70
2023-03-22T07:23:55.448Z,20.70
2023-03-22T07:26:22.069Z,20.70
2023-03-22T07:28:48.634Z,20.70
2023-03-22T07:31:15.638Z,20.80
2023-03-22T07:33:42.552Z,20.80
2023-03-22T07:36:09.550Z,20.80
2023-03-22T07:38:36.449Z,20.80
2023-03-22T07:41:03.228Z,20.80
2023-03-22T07:43:29.770Z,20.80
2023-03-22T07:45:56.592Z,20.80
2023-03-22T07:48:23.752Z,20.80
2023-03-22T07:50:54.333Z,20.80
2023-03-22T07:53:20.879Z,20.90
2023-03-22T07:55:47.770Z,20.90
2023-03-22T07:58:14.927Z,20.90
2023-03-22T08:00:41.811Z,20.90
2023-03-22T08:03:10.564Z,20.90
2023-03-22T08:05:39.587Z,20.90
2023-03-22T08:08:06.469Z,20.90
2023-03-22T08:10:32.994Z,20.90
2023-03-22T08:12:59.537Z,20.90
2023-03-22T08:15:26.200Z,20.90
2023-03-22T08:17:52.934Z,20.90
2023-03-22T08:20:19.678Z,20.90
2023-03-22T08:22:46.283Z,20.90
2023-03-22T08:25:12.851Z,20.90
2023-03-22T08:27:39.401Z,20.90
2023-03-22T08:30:06.413Z,20.90
2023-03-22T08:32:33.213Z,20.90
2023-03-22T08:34:59.833Z,20.90
2023-03-22T08:37:26.338Z,21.00
2023-03-22T08:39:52.859Z,20.90
2023-03-22T08:42:19.448Z,20.90
2023-03-22T08:44:46.123Z,20.90
2023-03-22T08:47:12.993Z,20.90
2023-03-22T08:49:39.505Z,20.90
2023-03-22T08:52:07.368Z,21.00
2023-03-22T08:54:36.870Z,20.90
2023-03-22T08:57:03.721Z,21.00
2023-03-22T08:59:30.395Z,21.00
2023-03-22T09:01:57.031Z,20.90
2023-03-22T09:04:23.867Z,21.00
2023-03-22T09:06:50.692Z,21.00
2023-03-22T09:09:17.266Z,21.00
2023-03-22T09:11:44.769Z,21.00
2023-03-22T09:14:11.293Z,21.00
2023-03-22T09:16:37.923Z,21.00
2023-03-22T09:19:04.672Z,21.00
2023-03-22T09:21:31.368Z,21.00
2023-03-22T09:23:57.979Z,21.00
2023-03-22T09:26:25.633Z,21.00
2023-03-22T09:28:52.336Z,21.00
2023-03-22T09:31:20.569Z,21.00
2023-03-22T09:33:47.441Z,21.00
2023-03-22T09:36:14.096Z,21.00
2023-03-22T09:38:42.053Z,21.00
2023-03-22T09:41:12.439Z,21.00
2023-03-22T09:43:43.779Z,21.00
2023-03-22T09:46:14.917Z,21.00
2023-03-22T09:48:42.820Z,21.00
2023-03-22T09:51:30.787Z,21.00
2023-03-22T09:53:57.418Z,21.00
2023-03-22T09:56:25.969Z,21.10
2023-03-22T09:58:52.615Z,21.00
2023-03-22T10:01:26.614Z,21.00
2023-03-22T10:04:05.589Z,21.00
2023-03-22T10:06:32.505Z,21.00
2023-03-22T10:09:09.042Z,21.00
2023-03-22T10:12:11.260Z,21.10
2023-03-22T10:14:42.146Z,21.10
2023-03-22T10:17:11.624Z,21.10
2023-03-22T10:19:50.484Z,21.10
2023-03-22T10:22:18.436Z,21.10
2023-03-22T10:24:46.270Z,21.10
2023-03-22T10:27:17.347Z,21.10
2023-03-22T10:29:48.693Z,21.10
2023-03-22T10:32:56.733Z,21.10
2023-03-22T10:35:24.220Z,21.10
2023-03-22T10:37:51.710Z,21.10
2023-03-22T10:40:36.791Z,21.10
2023-03-22T10:43:09.543Z,21.20
2023-03-22T10:45:36.902Z,21.20
2023-03-22T10:48:13.858Z,21.20
2023-03-22T10:50:42.956Z,21.20
2023-03-22T10:53:25.539Z,21.20
2023-03-22T10:55:52.153Z,21.20
2023-03-22T10:58:19.665Z,21.20
2023-03-22T11:00:50.390Z,21.10
2023-03-22T11:03:28.895Z,20.70
2023-03-22T11:06:10.614Z,20.40
2023-03-22T11:08:46.686Z,20.20
2023-03-22T11:11:33.493Z,20.10
2023-03-22T11:14:18.794Z,20.10
2023-03-22T11:17:00.852Z,20.00
2023-03-22T11:19:28.973Z,20.40
2023-03-22T11:21:57.342Z,20.60
2023-03-22T11:24:27.559Z,20.70
2023-03-22T11:27:07.909Z,20.80
2023-03-22T11:29:43.594Z,20.80
2023-03-22T11:32:21.188Z,20.90
2023-03-22T11:34:47.821Z,20.90
2023-03-22T11:37:18.218Z,20.90
2023-03-22T11:39:49.622Z,20.90
2023-03-22T11:42:18.508Z,21.00
2023-03-22T11:44:45.167Z,21.00
2023-03-22T11:47:13.160Z,21.00
2023-03-22T11:49:44.210Z,21.00
2023-03-22T11:52:14.700Z,21.00
2023-03-22T11:54:42.350Z,21.00
2023-03-22T11:57:15.638Z,21.00
2023-03-22T11:59:47.088Z,21.10
2023-03-22T12:02:23.678Z,21.10
2023-03-22T12:04:53.348Z,21.10
2023-03-22T12:07:21.937Z,21.10
2023-03-22T12:10:03.645Z,21.10
2023-03-22T12:12:33.293Z,21.10
2023-03-22T12:15:02.915Z,21.10
2023-03-22T12:17:36.153Z,21.10
2023-03-22T12:20:03.885Z,21.10
2023-03-22T12:22:34.901Z,21.10
2023-03-22T12:25:03.424Z,21.10
2023-03-22T12:27:37.406Z,21.10
2023-03-22T12:30:12.186Z,21.10
2023-03-22T12:32:48.781Z,21.10
2023-03-22T12:35:18.502Z,21.10
2023-03-22T12:37:48.046Z,21.20
2023-03-22T12:40:20.773Z,21.20
2023-03-22T12:42:58.192Z,21.20
2023-03-22T12:45:27.800Z,21.10
2023-03-22T12:48:01.043Z,21.20
2023-03-22T12:50:41.839Z,21.20
2023-03-22T12:53:12.642Z,21.20
2023-03-22T12:55:40.056Z,21.20
2023-03-22T12:58:07.773Z,21.20
2023-03-22T13:00:42.978Z,21.10
2023-03-22T13:03:15.500Z,21.20
2023-03-22T13:05:42.351Z,21.10
2023-03-22T13:08:10.203Z,21.00
2023-03-22T13:10:38.585Z,21.00
2023-03-22T13:13:12.105Z,21.00
2023-03-22T13:15:42.480Z,21.10
2023-03-22T13:18:23.306Z,21.10
2023-03-22T13:21:07.965Z,21.10
2023-03-22T13:23:34.519Z,21.10
2023-03-22T13:26:03.006Z,21.10
2023-03-22T13:28:30.872Z,21.10
2023-03-22T13:30:58.805Z,21.20
2023-03-22T13:33:27.688Z,21.20
2023-03-22T13:36:07.373Z,21.10
2023-03-22T13:38:35.530Z,21.20
2023-03-22T13:41:03.800Z,21.20
2023-03-22T13:43:39.189Z,21.20
2023-03-22T13:46:26.046Z,21.20
2023-03-22T13:49:01.932Z,21.20
2023-03-22T13:51:31.667Z,21.20
2023-03-22T13:54:07.540Z,21.20
2023-03-22T13:56:47.637Z,21.20
2023-03-22T13:59:19.304Z,21.20
2023-03-22T14:01:50.226Z,21.20
2023-03-22T14:04:22.560Z,21.20
2023-03-22T14:06:52.364Z,21.20
2023-03-22T14:09:32.465Z,21.20
2023-03-22T14:12:17.762Z,21.20
2023-03-22T14:14:46.943Z,21.20
2023-03-22T14:17:21.276Z,21.20
2023-03-22T14:19:49.131Z,21.20
